sensor_id;sensor_type;location;lat;lon;timestamp;temperature;humidity
43049;DHT22;28673;44.412;11.918;2023-11-21T00:00:22;11.40;99.90
43049;DHT22;28673;44.412;11.918;2023-11-21T00:02:47;11.40;99.90
43049;DHT22;28673;44.412;11.918;2023-11-21T00:05:14;11.40;99.90
43049;DHT22;28673;44.412;11.918;2023-11-21T00:07:41;11.40;99.90
43049;DHT22;28673;44.412;11.918;2023-11-21T00:10:07;11.40;99.90
43049;DHT22;28673;44.412;11.918;2023-11-21T00:12:34;11.40;99.90
43049;DHT22;28673;44.412;11.918;2023-11-21T00:15:00;11.40;99.90
43049;DHT22;28673;44.412;11.918;2023-11-21T00:17:27;11.40;99.90
43049;DHT22;28673;44.412;11.918;2023-11-21T00:19:53;11.40;99.90
43049;DHT22;28673;44.412;11.918;2023-11-21T00:22:19;11.40;99.90
43049;DHT22;28673;44.412;11.918;2023-11-21T00:24:46;11.40;99.90
43049;DHT22;28673;44.412;11.918;2023-11-21T00:27:12;11.40;99.90
43049;DHT22;28673;44.412;11.918;2023-11-21T00:29:37;11.40;99.90
43049;DHT22;28673;44.412;11.918;2023-11-21T00:32:05;11.40;99.90
43049;DHT22;28673;44.412;11.918;2023-11-21T00:34:31;11.40;99.90
43049;DHT22;28673;44.412;11.918;2023-11-21T00:36:58;11.40;99.90
43049;DHT22;28673;44.412;11.918;2023-11-21T00:39:24;11.40;99.90
43049;DHT22;28673;44.412;11.918;2023-11-21T00:41:50;11.40;99.90
43049;DHT22;28673;44.412;11.918;2023-11-21T00:44:18;11.40;99.90
43049;DHT22;28673;44.412;11.918;2023-11-21T00:46:43;11.30;99.90
43049;DHT22;28673;44.412;11.918;2023-11-21T00:49:09;11.40;99.90
43049;DHT22;28673;44.412;11.918;2023-11-21T00:51:35;11.40;99.90
43049;DHT22;28673;44.412;11.918;2023-11-21T00:54:02;11.30;99.90
43049;DHT22;28673;44.412;11.918;2023-11-21T00:56:28;11.30;99.90
43049;DHT22;28673;44.412;11.918;2023-11-21T00:58:54;11.30;99.90
43049;DHT22;28673;44.412;11.918;2023-11-21T01:01:21;11.30;99.90
43049;DHT22;28673;44.412;11.918;2023-11-21T01:03:50;11.30;99.90
43049;DHT22;28673;44.412;11.918;2023-11-21T01:06:17;11.30;99.90
43049;DHT22;28673;44.412;11.918;2023-11-21T01:08:44;11.20;99.90
43049;DHT22;28673;44.412;11.918;2023-11-21T01:11:10;11.20;99.90
43049;DHT22;28673;44.412;11.918;2023-11-21T01:13:41;11.20;99.90
43049;DHT22;28673;44.412;11.918;2023-11-21T01:16:07;11.20;99.90
43049;DHT22;28673;44.412;11.918;2023-11-21T01:18:34;11.20;99.90
43049;DHT22;28673;44.412;11.918;2023-11-21T01:21:00;11.20;99.90
43049;DHT22;28673;44.412;11.918;2023-11-21T01:23:26;11.10;99.90
43049;DHT22;28673;44.412;11.918;2023-11-21T01:25:53;11.10;99.90
43049;DHT22;28673;44.412;11.918;2023-11-21T01:28:18;11.20;99.90
43049;DHT22;28673;44.412;11.918;2023-11-21T01:30:45;11.10;99.90
43049;DHT22;28673;44.412;11.918;2023-11-21T01:33:11;11.10;99.90
43049;DHT22;28673;44.412;11.918;2023-11-21T01:35:37;11.10;99.90
43049;DHT22;28673;44.412;11.918;2023-11-21T01:38:03;11.10;99.90
43049;DHT22;28673;44.412;11.918;2023-11-21T01:40:30;11.10;99.90
43049;DHT22;28673;44.412;11.918;2023-11-21T01:42:56;11.10;99.90
43049;DHT22;28673;44.412;11.918;2023-11-21T01:45:23;11.10;99.90
43049;DHT22;28673;44.412;11.918;2023-11-21T01:47:51;11.10;99.90
43049;DHT22;28673;44.412;11.918;2023-11-21T01:50:18;11.10;99.90
43049;DHT22;28673;44.412;11.918;2023-11-21T01:52:45;11.10;99.90
43049;DHT22;28673;44.412;11.918;2023-11-21T01:55:11;11.10;99.90
43049;DHT22;28673;44.412;11.918;2023-11-21T01:57:40;11.20;99.90
43049;DHT22;28673;44.412;11.918;2023-11-21T02:00:07;11.20;99.90
43049;DHT22;28673;44.412;11.918;2023-11-21T02:02:47;11.20;99.90
43049;DHT22;28673;44.412;11.918;2023-11-21T02:05:15;11.20;99.90
43049;DHT22;28673;44.412;11.918;2023-11-21T02:07:42;11.20;99.90
43049;DHT22;28673;44.412;11.918;2023-11-21T02:10:09;11.20;99.90
43049;DHT22;28673;44.412;11.918;2023-11-21T02:12:36;11.20;99.90
43049;DHT22;28673;44.412;11.918;2023-11-21T02:15:03;11.20;99.90
43049;DHT22;28673;44.412;11.918;2023-11-21T02:17:31;11.30;99.90
43049;DHT22;28673;44.412;11.918;2023-11-21T02:19:58;11.30;99.90
43049;DHT22;28673;44.412;11.918;2023-11-21T02:22:28;11.30;99.90
43049;DHT22;28673;44.412;11.918;2023-11-21T02:24:56;11.30;99.90
43049;DHT22;28673;44.412;11.918;2023-11-21T02:27:23;11.30;99.90
43049;DHT22;28673;44.412;11.918;2023-11-21T02:29:50;11.30;99.90
43049;DHT22;28673;44.412;11.918;2023-11-21T02:32:16;11.30;99.90
43049;DHT22;28673;44.412;11.918;2023-11-21T02:34:44;11.30;99.90
43049;DHT22;28673;44.412;11.918;2023-11-21T02:37:10;11.30;99.90
43049;DHT22;28673;44.412;11.918;2023-11-21T02:39:37;11.20;99.90
43049;DHT22;28673;44.412;11.918;2023-11-21T02:42:03;11.20;99.90
43049;DHT22;28673;44.412;11.918;2023-11-21T02:44:30;11.20;99.90
43049;DHT22;28673;44.412;11.918;2023-11-21T02:46:56;11.20;99.90
43049;DHT22;28673;44.412;11.918;2023-11-21T02:49:23;11.20;99.90
43049;DHT22;28673;44.412;11.918;2023-11-21T02:51:49;11.20;99.90
43049;DHT22;28673;44.412;11.918;2023-11-21T02:54:15;11.20;99.90
43049;DHT22;28673;44.412;11.918;2023-11-21T02:56:42;11.20;99.90
43049;DHT22;28673;44.412;11.918;2023-11-21T02:59:08;11.20;99.90
43049;DHT22;28673;44.412;11.918;2023-11-21T03:01:34;11.20;99.90
43049;DHT22;28673;44.412;11.918;2023-11-21T03:04:00;11.20;99.90
43049;DHT22;28673;44.412;11.918;2023-11-21T03:06:27;11.20;99.90
43049;DHT22;28673;44.412;11.918;2023-11-21T03:08:53;11.20;99.90
43049;DHT22;28673;44.412;11.918;2023-11-21T03:11:19;11.10;99.90
43049;DHT22;28673;44.412;11.918;2023-11-21T03:13:44;11.10;99.90
43049;DHT22;28673;44.412;11.918;2023-11-21T03:16:12;11.10;99.90
43049;DHT22;28673;44.412;11.918;2023-11-21T03:18:39;11.10;99.90
43049;DHT22;28673;44.412;11.918;2023-11-21T03:21:05;11.10;99.90
43049;DHT22;28673;44.412;11.918;2023-11-21T03:23:34;11.10;99.90
43049;DHT22;28673;44.412;11.918;2023-11-21T03:26:03;11.10;99.90
43049;DHT22;28673;44.412;11.918;2023-11-21T03:28:29;11.10;99.90
43049;DHT22;28673;44.412;11.918;2023-11-21T03:30:59;11.10;99.90
43049;DHT22;28673;44.412;11.918;2023-11-21T03:33:25;11.10;99.90
43049;DHT22;28673;44.412;11.918;2023-11-21T03:35:50;11.10;99.90
43049;DHT22;28673;44.412;11.918;2023-11-21T03:38:19;11.10;99.90
43049;DHT22;28673;44.412;11.918;2023-11-21T03:40:45;11.10;99.90
43049;DHT22;28673;44.412;11.918;2023-11-21T03:43:13;11.10;99.90
43049;DHT22;28673;44.412;11.918;2023-11-21T03:45:39;11.10;99.90
43049;DHT22;28673;44.412;11.918;2023-11-21T03:48:06;11.10;99.90
43049;DHT22;28673;44.412;11.918;2023-11-21T03:50:36;11.10;99.90
43049;DHT22;28673;44.412;11.918;2023-11-21T03:53:02;11.10;99.90
43049;DHT22;28673;44.412;11.918;2023-11-21T03:55:29;11.10;99.90
43049;DHT22;28673;44.412;11.918;2023-11-21T03:57:57;11.10;99.90
43049;DHT22;28673;44.412;11.918;2023-11-21T04:00:23;11.10;99.90
43049;DHT22;28673;44.412;11.918;2023-11-21T04:02:49;11.10;99.90
43049;DHT22;28673;44.412;11.918;2023-11-21T04:05:17;11.10;99.90
43049;DHT22;28673;44.412;11.918;2023-11-21T04:07:43;11.10;99.90
43049;DHT22;28673;44.412;11.918;2023-11-21T04:10:09;11.10;99.90
43049;DHT22;28673;44.412;11.918;2023-11-21T04:12:38;11.10;99.90
43049;DHT22;28673;44.412;11.918;2023-11-21T04:15:04;11.10;99.90
43049;DHT22;28673;44.412;11.918;2023-11-21T04:17:30;11.10;99.90
43049;DHT22;28673;44.412;11.918;2023-11-21T04:19:56;11.10;99.90
43049;DHT22;28673;44.412;11.918;2023-11-21T04:22:22;11.10;99.90
43049;DHT22;28673;44.412;11.918;2023-11-21T04:24:48;11.00;99.90
43049;DHT22;28673;44.412;11.918;2023-11-21T04:27:14;11.00;99.90
43049;DHT22;28673;44.412;11.918;2023-11-21T04:29:40;11.00;99.90
43049;DHT22;28673;44.412;11.918;2023-11-21T04:32:07;11.00;99.90
43049;DHT22;28673;44.412;11.918;2023-11-21T04:34:33;11.00;99.90
43049;DHT22;28673;44.412;11.918;2023-11-21T04:37:00;11.00;99.90
43049;DHT22;28673;44.412;11.918;2023-11-21T04:39:26;11.00;99.90
43049;DHT22;28673;44.412;11.918;2023-11-21T04:41:52;11.00;99.90
43049;DHT22;28673;44.412;11.918;2023-11-21T04:44:18;11.00;99.90
43049;DHT22;28673;44.412;11.918;2023-11-21T04:46:43;11.00;99.90
43049;DHT22;28673;44.412;11.918;2023-11-21T04:49:09;11.00;99.90
43049;DHT22;28673;44.412;11.918;2023-11-21T04:51:36;11.00;99.90
43049;DHT22;28673;44.412;11.918;2023-11-21T04:54:02;11.00;99.90
43049;DHT22;28673;44.412;11.918;2023-11-21T04:56:28;11.00;99.90
43049;DHT22;28673;44.412;11.918;2023-11-21T04:58:54;11.00;99.90
43049;DHT22;28673;44.412;11.918;2023-11-21T05:01:20;11.00;99.90
43049;DHT22;28673;44.412;11.918;2023-11-21T05:03:46;11.00;99.90
43049;DHT22;28673;44.412;11.918;2023-11-21T05:06:12;11.00;99.90
43049;DHT22;28673;44.412;11.918;2023-11-21T05:08:40;11.00;99.90
43049;DHT22;28673;44.412;11.918;2023-11-21T05:11:06;11.00;99.90
43049;DHT22;28673;44.412;11.918;2023-11-21T05:13:34;11.00;99.90
43049;DHT22;28673;44.412;11.918;2023-11-21T05:16:00;11.00;99.90
43049;DHT22;28673;44.412;11.918;2023-11-21T05:18:26;11.00;99.90
43049;DHT22;28673;44.412;11.918;2023-11-21T05:20:56;11.00;99.90
43049;DHT22;28673;44.412;11.918;2023-11-21T05:23:22;11.00;99.90
43049;DHT22;28673;44.412;11.918;2023-11-21T05:25:48;11.00;99.90
43049;DHT22;28673;44.412;11.918;2023-11-21T05:28:13;11.00;99.90
43049;DHT22;28673;44.412;11.918;2023-11-21T05:30:39;11.00;99.90
43049;DHT22;28673;44.412;11.918;2023-11-21T05:33:05;11.00;99.90
43049;DHT22;28673;44.412;11.918;2023-11-21T05:35:31;11.00;99.90
43049;DHT22;28673;44.412;11.918;2023-11-21T05:37:57;11.00;99.90
43049;DHT22;28673;44.412;11.918;2023-11-21T05:40:23;11.00;99.90
43049;DHT22;28673;44.412;11.918;2023-11-21T05:42:48;10.90;99.90
43049;DHT22;28673;44.412;11.918;2023-11-21T05:45:14;11.00;99.90
43049;DHT22;28673;44.412;11.918;2023-11-21T05:47:45;11.00;99.90
43049;DHT22;28673;44.412;11.918;2023-11-21T05:50:15;11.00;99.90
43049;DHT22;28673;44.412;11.918;2023-11-21T05:52:45;11.00;99.90
43049;DHT22;28673;44.412;11.918;2023-11-21T05:55:11;10.90;99.90
43049;DHT22;28673;44.412;11.918;2023-11-21T05:57:38;11.00;99.90
43049;DHT22;28673;44.412;11.918;2023-11-21T06:00:10;11.00;99.90
43049;DHT22;28673;44.412;11.918;2023-11-21T06:02:51;11.00;99.90
43049;DHT22;28673;44.412;11.918;2023-11-21T06:05:23;11.00;99.90
43049;DHT22;28673;44.412;11.918;2023-11-21T06:07:50;11.00;99.90
43049;DHT22;28673;44.412;11.918;2023-11-21T06:10:16;11.00;99.90
43049;DHT22;28673;44.412;11.918;2023-11-21T06:12:43;11.00;99.90
43049;DHT22;28673;44.412;11.918;2023-11-21T06:15:10;11.00;99.90
43049;DHT22;28673;44.412;11.918;2023-11-21T06:17:39;11.00;99.90
43049;DHT22;28673;44.412;11.918;2023-11-21T06:20:07;11.00;99.90
43049;DHT22;28673;44.412;11.918;2023-11-21T06:22:40;11.00;99.90
43049;DHT22;28673;44.412;11.918;2023-11-21T06:25:07;11.00;99.90
43049;DHT22;28673;44.412;11.918;2023-11-21T06:27:37;11.00;99.90
43049;DHT22;28673;44.412;11.918;2023-11-21T06:30:04;11.00;99.90
43049;DHT22;28673;44.412;11.918;2023-11-21T06:32:30;11.00;99.90
43049;DHT22;28673;44.412;11.918;2023-11-21T06:34:56;11.00;99.90
43049;DHT22;28673;44.412;11.918;2023-11-21T06:37:29;11.00;99.90
43049;DHT22;28673;44.412;11.918;2023-11-21T06:39:55;11.00;99.90
43049;DHT22;28673;44.412;11.918;2023-11-21T06:42:22;11.00;99.90
43049;DHT22;28673;44.412;11.918;2023-11-21T06:44:50;11.00;99.90
43049;DHT22;28673;44.412;11.918;2023-11-21T06:47:20;11.00;99.90
43049;DHT22;28673;44.412;11.918;2023-11-21T06:49:46;11.10;99.90
43049;DHT22;28673;44.412;11.918;2023-11-21T06:52:15;11.10;99.90
43049;DHT22;28673;44.412;11.918;2023-11-21T06:54:42;11.10;99.90
43049;DHT22;28673;44.412;11.918;2023-11-21T06:57:08;11.10;99.90
43049;DHT22;28673;44.412;11.918;2023-11-21T06:59:33;11.10;99.90
43049;DHT22;28673;44.412;11.918;2023-11-21T07:01:59;11.10;99.90
43049;DHT22;28673;44.412;11.918;2023-11-21T07:04:25;11.10;99.90
43049;DHT22;28673;44.412;11.918;2023-11-21T07:06:52;11.10;99.90
43049;DHT22;28673;44.412;11.918;2023-11-21T07:09:18;11.10;99.90
43049;DHT22;28673;44.412;11.918;2023-11-21T07:11:50;11.10;99.90
43049;DHT22;28673;44.412;11.918;2023-11-21T07:14:17;11.10;99.90
43049;DHT22;28673;44.412;11.918;2023-11-21T07:16:45;11.10;99.90
43049;DHT22;28673;44.412;11.918;2023-11-21T07:19:11;11.10;99.90
43049;DHT22;28673;44.412;11.918;2023-11-21T07:21:38;11.10;99.90
43049;DHT22;28673;44.412;11.918;2023-11-21T07:24:08;11.10;99.90
43049;DHT22;28673;44.412;11.918;2023-11-21T07:26:35;11.10;99.90
43049;DHT22;28673;44.412;11.918;2023-11-21T07:29:02;11.10;99.90
43049;DHT22;28673;44.412;11.918;2023-11-21T07:31:28;11.10;99.90
43049;DHT22;28673;44.412;11.918;2023-11-21T07:33:55;11.10;99.90
43049;DHT22;28673;44.412;11.918;2023-11-21T07:36:23;11.10;99.90
43049;DHT22;28673;44.412;11.918;2023-11-21T07:38:49;11.10;99.90
43049;DHT22;28673;44.412;11.918;2023-11-21T07:41:16;11.10;99.90
43049;DHT22;28673;44.412;11.918;2023-11-21T07:43:43;11.00;99.90
43049;DHT22;28673;44.412;11.918;2023-11-21T07:46:10;11.00;99.90
43049;DHT22;28673;44.412;11.918;2023-11-21T07:48:35;11.00;99.90
43049;DHT22;28673;44.412;11.918;2023-11-21T07:51:02;11.00;99.90
43049;DHT22;28673;44.412;11.918;2023-11-21T07:53:32;11.00;99.90
43049;DHT22;28673;44.412;11.918;2023-11-21T07:56:08;11.00;99.90
43049;DHT22;28673;44.412;11.918;2023-11-21T07:58:36;11.00;99.90
43049;DHT22;28673;44.412;11.918;2023-11-21T08:01:02;11.00;99.90
43049;DHT22;28673;44.412;11.918;2023-11-21T08:03:29;11.00;99.90
43049;DHT22;28673;44.412;11.918;2023-11-21T08:05:59;11.10;99.90
43049;DHT22;28673;44.412;11.918;2023-11-21T08:08:26;11.10;99.90
43049;DHT22;28673;44.412;11.918;2023-11-21T08:10:53;11.10;99.90
43049;DHT22;28673;44.412;11.918;2023-11-21T08:13:27;11.10;99.90
43049;DHT22;28673;44.412;11.918;2023-11-21T08:15:59;11.10;99.90
43049;DHT22;28673;44.412;11.918;2023-11-21T08:18:27;11.10;99.90
43049;DHT22;28673;44.412;11.918;2023-11-21T08:20:54;11.20;99.90
43049;DHT22;28673;44.412;11.918;2023-11-21T08:23:21;11.20;99.90
43049;DHT22;28673;44.412;11.918;2023-11-21T08:25:51;11.20;99.90
43049;DHT22;28673;44.412;11.918;2023-11-21T08:28:17;11.20;99.90
43049;DHT22;28673;44.412;11.918;2023-11-21T08:30:43;11.20;99.90
43049;DHT22;28673;44.412;11.918;2023-11-21T08:33:09;11.20;99.90
43049;DHT22;28673;44.412;11.918;2023-11-21T08:35:36;11.20;99.90
43049;DHT22;28673;44.412;11.918;2023-11-21T08:38:03;11.20;99.90
43049;DHT22;28673;44.412;11.918;2023-11-21T08:40:29;11.20;99.90
43049;DHT22;28673;44.412;11.918;2023-11-21T08:42:55;11.20;99.90
43049;DHT22;28673;44.412;11.918;2023-11-21T08:45:21;11.20;99.90
43049;DHT22;28673;44.412;11.918;2023-11-21T08:47:48;11.20;99.90
43049;DHT22;28673;44.412;11.918;2023-11-21T08:50:14;11.20;99.90
43049;DHT22;28673;44.412;11.918;2023-11-21T08:52:41;11.30;99.90
43049;DHT22;28673;44.412;11.918;2023-11-21T08:55:08;11.30;99.90
43049;DHT22;28673;44.412;11.918;2023-11-21T08:57:35;11.30;99.90
43049;DHT22;28673;44.412;11.918;2023-11-21T09:00:04;11.30;99.90
43049;DHT22;28673;44.412;11.918;2023-11-21T09:02:33;11.30;99.90
43049;DHT22;28673;44.412;11.918;2023-11-21T09:05:04;11.30;99.90
43049;DHT22;28673;44.412;11.918;2023-11-21T09:07:30;11.30;99.90
43049;DHT22;28673;44.412;11.918;2023-11-21T09:09:56;11.30;99.90
43049;DHT22;28673;44.412;11.918;2023-11-21T09:12:22;11.30;99.90
43049;DHT22;28673;44.412;11.918;2023-11-21T09:14:51;11.30;99.90
43049;DHT22;28673;44.412;11.918;2023-11-21T09:17:17;11.30;99.90
43049;DHT22;28673;44.412;11.918;2023-11-21T09:19:43;11.40;99.90
43049;DHT22;28673;44.412;11.918;2023-11-21T09:22:10;11.40;99.90
43049;DHT22;28673;44.412;11.918;2023-11-21T09:24:36;11.30;99.90
43049;DHT22;28673;44.412;11.918;2023-11-21T09:27:03;11.40;99.90
43049;DHT22;28673;44.412;11.918;2023-11-21T09:29:30;11.40;99.90
43049;DHT22;28673;44.412;11.918;2023-11-21T09:31:57;11.40;99.90
43049;DHT22;28673;44.412;11.918;2023-11-21T09:34:25;11.50;99.90
43049;DHT22;28673;44.412;11.918;2023-11-21T09:36:51;11.50;99.90
43049;DHT22;28673;44.412;11.918;2023-11-21T09:39:18;11.50;99.90
43049;DHT22;28673;44.412;11.918;2023-11-21T09:41:50;11.50;99.90
43049;DHT22;28673;44.412;11.918;2023-11-21T09:44:36;11.60;99.90
43049;DHT22;28673;44.412;11.918;2023-11-21T09:47:10;11.50;99.90
43049;DHT22;28673;44.412;11.918;2023-11-21T09:49:39;11.50;99.90
43049;DHT22;28673;44.412;11.918;2023-11-21T09:52:09;11.60;99.90
43049;DHT22;28673;44.412;11.918;2023-11-21T09:54:38;11.60;99.90
43049;DHT22;28673;44.412;11.918;2023-11-21T09:57:06;11.60;99.90
43049;DHT22;28673;44.412;11.918;2023-11-21T09:59:32;11.60;99.90
43049;DHT22;28673;44.412;11.918;2023-11-21T10:01:58;11.60;99.90
43049;DHT22;28673;44.412;11.918;2023-11-21T10:04:25;11.60;99.90
43049;DHT22;28673;44.412;11.918;2023-11-21T10:06:53;11.60;99.90
43049;DHT22;28673;44.412;11.918;2023-11-21T10:09:19;11.60;99.90
43049;DHT22;28673;44.412;11.918;2023-11-21T10:11:47;11.60;99.90
43049;DHT22;28673;44.412;11.918;2023-11-21T10:14:16;11.50;99.90
43049;DHT22;28673;44.412;11.918;2023-11-21T10:16:44;11.50;99.90
43049;DHT22;28673;44.412;11.918;2023-11-21T10:19:13;11.50;99.90
43049;DHT22;28673;44.412;11.918;2023-11-21T10:21:41;11.50;99.90
43049;DHT22;28673;44.412;11.918;2023-11-21T10:24:08;11.50;99.90
43049;DHT22;28673;44.412;11.918;2023-11-21T10:26:34;11.40;99.90
43049;DHT22;28673;44.412;11.918;2023-11-21T10:29:02;11.40;99.90
43049;DHT22;28673;44.412;11.918;2023-11-21T10:31:31;11.40;99.90
43049;DHT22;28673;44.412;11.918;2023-11-21T10:34:13;11.30;99.90
43049;DHT22;28673;44.412;11.918;2023-11-21T10:36:39;11.30;99.90
43049;DHT22;28673;44.412;11.918;2023-11-21T10:39:05;11.30;99.90
43049;DHT22;28673;44.412;11.918;2023-11-21T10:41:31;11.30;99.90
43049;DHT22;28673;44.412;11.918;2023-11-21T10:43:57;11.30;99.90
43049;DHT22;28673;44.412;11.918;2023-11-21T10:46:23;11.20;99.90
43049;DHT22;28673;44.412;11.918;2023-11-21T10:48:53;11.20;99.90
43049;DHT22;28673;44.412;11.918;2023-11-21T10:51:21;11.20;99.90
43049;DHT22;28673;44.412;11.918;2023-11-21T10:53:51;11.20;99.90
43049;DHT22;28673;44.412;11.918;2023-11-21T10:56:18;11.20;99.90
43049;DHT22;28673;44.412;11.918;2023-11-21T10:58:49;11.20;99.90
43049;DHT22;28673;44.412;11.918;2023-11-21T11:01:18;11.20;99.90
43049;DHT22;28673;44.412;11.918;2023-11-21T11:03:44;11.20;99.90
43049;DHT22;28673;44.412;11.918;2023-11-21T11:06:10;11.10;99.90
43049;DHT22;28673;44.412;11.918;2023-11-21T11:08:38;11.10;99.90
43049;DHT22;28673;44.412;11.918;2023-11-21T11:11:10;11.10;99.90
43049;DHT22;28673;44.412;11.918;2023-11-21T11:13:37;11.10;99.90
43049;DHT22;28673;44.412;11.918;2023-11-21T11:16:04;11.00;99.90
43049;DHT22;28673;44.412;11.918;2023-11-21T11:18:33;11.00;99.90
43049;DHT22;28673;44.412;11.918;2023-11-21T11:21:11;11.10;99.90
43049;DHT22;28673;44.412;11.918;2023-11-21T11:24:08;11.10;99.90
43049;DHT22;28673;44.412;11.918;2023-11-21T11:27:44;11.20;99.90
43049;DHT22;28673;44.412;11.918;2023-11-21T11:29:56;11.20;99.90
43049;DHT22;28673;44.412;11.918;2023-11-21T11:38:08;11.30;99.90
43049;DHT22;28673;44.412;11.918;2023-11-21T11:40:41;11.30;99.90
43049;DHT22;28673;44.412;11.918;2023-11-21T11:43:10;11.30;99.90
43049;DHT22;28673;44.412;11.918;2023-11-21T11:45:37;11.30;99.90
43049;DHT22;28673;44.412;11.918;2023-11-21T11:48:18;11.30;99.90
43049;DHT22;28673;44.412;11.918;2023-11-21T11:51:04;11.30;99.90
43049;DHT22;28673;44.412;11.918;2023-11-21T11:54:00;11.30;99.90
43049;DHT22;28673;44.412;11.918;2023-11-21T11:56:28;11.30;99.90
43049;DHT22;28673;44.412;11.918;2023-11-21T11:58:59;11.30;99.90
43049;DHT22;28673;44.412;11.918;2023-11-21T12:01:28;11.30;99.90
43049;DHT22;28673;44.412;11.918;2023-11-21T12:07:05;11.30;99.90
43049;DHT22;28673;44.412;11.918;2023-11-21T12:09:32;11.30;99.90
43049;DHT22;28673;44.412;11.918;2023-11-21T12:11:58;11.30;99.90
43049;DHT22;28673;44.412;11.918;2023-11-21T12:14:24;11.30;99.90
43049;DHT22;28673;44.412;11.918;2023-11-21T12:16:50;11.30;99.90
43049;DHT22;28673;44.412;11.918;2023-11-21T12:19:17;11.30;99.90
43049;DHT22;28673;44.412;11.918;2023-11-21T12:21:44;11.40;99.90
43049;DHT22;28673;44.412;11.918;2023-11-21T12:24:10;11.40;99.90
43049;DHT22;28673;44.412;11.918;2023-11-21T12:26:39;11.40;99.90
43049;DHT22;28673;44.412;11.918;2023-11-21T12:29:05;11.40;99.90
43049;DHT22;28673;44.412;11.918;2023-11-21T12:31:33;11.40;99.90
43049;DHT22;28673;44.412;11.918;2023-11-21T12:34:00;11.40;99.90
43049;DHT22;28673;44.412;11.918;2023-11-21T12:36:26;11.40;99.90
43049;DHT22;28673;44.412;11.918;2023-11-21T12:38:54;11.40;99.90
43049;DHT22;28673;44.412;11.918;2023-11-21T12:41:20;11.40;99.90
43049;DHT22;28673;44.412;11.918;2023-11-21T12:43:47;11.40;99.90
43049;DHT22;28673;44.412;11.918;2023-11-21T12:46:14;11.50;99.90
43049;DHT22;28673;44.412;11.918;2023-11-21T12:48:44;11.40;99.90
43049;DHT22;28673;44.412;11.918;2023-11-21T12:51:12;11.40;99.90
43049;DHT22;28673;44.412;11.918;2023-11-21T12:53:40;11.40;99.90
43049;DHT22;28673;44.412;11.918;2023-11-21T12:56:07;11.50;99.90
43049;DHT22;28673;44.412;11.918;2023-11-21T12:58:35;11.40;99.90
43049;DHT22;28673;44.412;11.918;2023-11-21T13:01:01;11.50;99.90
43049;DHT22;28673;44.412;11.918;2023-11-21T13:03:30;11.50;99.90
43049;DHT22;28673;44.412;11.918;2023-11-21T13:05:56;11.50;99.90
43049;DHT22;28673;44.412;11.918;2023-11-21T13:08:25;11.50;99.90
43049;DHT22;28673;44.412;11.918;2023-11-21T13:10:53;11.50;99.90
43049;DHT22;28673;44.412;11.918;2023-11-21T13:13:21;11.50;99.90
43049;DHT22;28673;44.412;11.918;2023-11-21T13:15:54;11.50;99.90
43049;DHT22;28673;44.412;11.918;2023-11-21T13:18:24;11.50;99.90
43049;DHT22;28673;44.412;11.918;2023-11-21T13:20:53;11.50;99.90
43049;DHT22;28673;44.412;11.918;2023-11-21T13:23:19;11.50;99.90
43049;DHT22;28673;44.412;11.918;2023-11-21T13:25:45;11.50;99.90
43049;DHT22;28673;44.412;11.918;2023-11-21T13:28:12;11.50;99.90
43049;DHT22;28673;44.412;11.918;2023-11-21T13:30:38;11.50;99.90
43049;DHT22;28673;44.412;11.918;2023-11-21T13:33:07;11.50;99.90
43049;DHT22;28673;44.412;11.918;2023-11-21T13:35:35;11.60;99.90
43049;DHT22;28673;44.412;11.918;2023-11-21T13:38:07;11.50;99.90
43049;DHT22;28673;44.412;11.918;2023-11-21T13:40:35;11.50;99.90
43049;DHT22;28673;44.412;11.918;2023-11-21T13:43:12;11.50;99.90
43049;DHT22;28673;44.412;11.918;2023-11-21T13:45:42;11.50;99.90
43049;DHT22;28673;44.412;11.918;2023-11-21T13:48:10;11.50;99.90
43049;DHT22;28673;44.412;11.918;2023-11-21T13:50:39;11.50;99.90
43049;DHT22;28673;44.412;11.918;2023-11-21T13:53:14;11.50;99.90
43049;DHT22;28673;44.412;11.918;2023-11-21T13:55:53;11.50;99.90
43049;DHT22;28673;44.412;11.918;2023-11-21T13:58:26;11.50;99.90
43049;DHT22;28673;44.412;11.918;2023-11-21T14:01:10;11.50;99.90
43049;DHT22;28673;44.412;11.918;2023-11-21T14:04:03;11.40;99.90
43049;DHT22;28673;44.412;11.918;2023-11-21T14:06:49;11.40;99.90
43049;DHT22;28673;44.412;11.918;2023-11-21T14:09:18;11.40;99.90
43049;DHT22;28673;44.412;11.918;2023-11-21T14:11:57;11.40;99.90
43049;DHT22;28673;44.412;11.918;2023-11-21T14:14:26;11.40;99.90
43049;DHT22;28673;44.412;11.918;2023-11-21T14:16:53;11.40;99.90
43049;DHT22;28673;44.412;11.918;2023-11-21T14:19:21;11.40;99.90
43049;DHT22;28673;44.412;11.918;2023-11-21T14:21:47;11.40;99.90
43049;DHT22;28673;44.412;11.918;2023-11-21T14:24:16;11.40;99.90
43049;DHT22;28673;44.412;11.918;2023-11-21T14:26:44;11.40;99.90
43049;DHT22;28673;44.412;11.918;2023-11-21T14:29:12;11.40;99.90
43049;DHT22;28673;44.412;11.918;2023-11-21T14:31:40;11.40;99.90
43049;DHT22;28673;44.412;11.918;2023-11-21T14:34:07;11.30;99.90
43049;DHT22;28673;44.412;11.918;2023-11-21T14:36:34;11.30;99.90
43049;DHT22;28673;44.412;11.918;2023-11-21T14:39:03;11.30;99.90
43049;DHT22;28673;44.412;11.918;2023-11-21T14:41:32;11.30;99.90
43049;DHT22;28673;44.412;11.918;2023-11-21T14:44:01;11.30;99.90
43049;DHT22;28673;44.412;11.918;2023-11-21T14:46:29;11.20;99.90
43049;DHT22;28673;44.412;11.918;2023-11-21T14:48:55;11.20;99.90
43049;DHT22;28673;44.412;11.918;2023-11-21T14:51:51;11.20;99.90
43049;DHT22;28673;44.412;11.918;2023-11-21T14:54:31;11.20;99.90
43049;DHT22;28673;44.412;11.918;2023-11-21T14:57:09;11.20;99.90
43049;DHT22;28673;44.412;11.918;2023-11-21T14:59:44;11.20;99.90
43049;DHT22;28673;44.412;11.918;2023-11-21T15:02:17;11.30;99.90
43049;DHT22;28673;44.412;11.918;2023-11-21T15:05:03;11.30;99.90
43049;DHT22;28673;44.412;11.918;2023-11-21T15:07:31;11.20;99.90
43049;DHT22;28673;44.412;11.918;2023-11-21T15:09:56;11.20;99.90
43049;DHT22;28673;44.412;11.918;2023-11-21T15:12:22;11.30;99.90
43049;DHT22;28673;44.412;11.918;2023-11-21T15:14:52;11.30;99.90
43049;DHT22;28673;44.412;11.918;2023-11-21T15:17:20;11.30;99.90
43049;DHT22;28673;44.412;11.918;2023-11-21T15:19:52;11.30;99.90
43049;DHT22;28673;44.412;11.918;2023-11-21T15:22:19;11.20;99.90
43049;DHT22;28673;44.412;11.918;2023-11-21T15:24:45;11.20;99.90
43049;DHT22;28673;44.412;11.918;2023-11-21T15:27:13;11.20;99.90
43049;DHT22;28673;44.412;11.918;2023-11-21T15:29:39;11.20;99.90